Time;durP1;ratioP1;P1;durP2;ratioP2;P2;SDS_P1;SDS_P2;PMS_P1;PMS_P2;Temp;Humidity;BMP_temperature;BMP_pressure;BME280_temperature;BME280_humidity;BME280_pressure;Samples;Min_cycle;Max_cycle;Signal;HPM_P1;HPM_P2
2023/07/21 00:00:21;;;;;;;162.60;110.55;;;;;;;10.47;100.00;101243.16;5074451;28;20035;-79
2023/07/21 00:02:48;;;;;;;166.18;111.50;;;;;;;10.48;100.00;101246.72;5054253;28;20040;-79
2023/07/21 00:05:15;;;;;;;168.68;111.18;;;;;;;10.48;100.00;101247.56;5020943;28;20045;-78
2023/07/21 00:07:41;;;;;;;170.27;110.65;;;;;;;10.48;100.00;101250.25;5038057;28;20056;-78
2023/07/21 00:10:08;;;;;;;160.48;109.53;;;;;;;10.49;100.00;101248.38;5054264;28;20131;-79
2023/07/21 00:12:35;;;;;;;161.25;109.57;;;;;;;10.25;100.00;101211.47;5045201;28;20040;-78
2023/07/21 00:15:01;;;;;;;165.70;109.97;;;;;;;10.49;100.00;101246.53;5040583;28;20047;-78
2023/07/21 00:17:29;;;;;;;164.18;110.85;;;;;;;10.51;100.00;101247.22;5074186;28;20044;-78
2023/07/21 00:19:56;;;;;;;160.40;109.57;;;;;;;10.42;100.00;101231.22;5057410;28;20032;-78
2023/07/21 00:22:22;;;;;;;158.35;108.60;;;;;;;10.42;100.00;101234.75;5073564;28;20028;-78
2023/07/21 00:24:48;;;;;;;159.25;108.55;;;;;;;10.24;100.00;101209.78;5056439;28;20047;-78
2023/07/21 00:27:16;;;;;;;158.45;108.78;;;;;;;10.29;100.00;101228.97;5057505;28;20032;-78
2023/07/21 00:29:42;;;;;;;160.15;106.20;;;;;;;10.21;100.00;101210.09;5056650;28;20040;-80
2023/07/21 00:32:08;;;;;;;161.70;109.25;;;;;;;10.24;100.00;101236.66;5052537;28;20025;-80
2023/07/21 00:34:33;;;;;;;163.68;110.90;;;;;;;9.96;100.00;101195.75;5036950;28;20041;-80
2023/07/21 00:37:00;;;;;;;160.30;109.00;;;;;;;10.16;100.00;101228.56;5054615;28;20025;-79
2023/07/21 00:39:25;;;;;;;156.80;107.97;;;;;;;10.04;100.00;101217.28;5037235;28;20392;-80
2023/07/21 00:41:51;;;;;;;161.05;108.22;;;;;;;9.93;100.00;101213.03;5038750;28;20083;-78
2023/07/21 00:44:16;;;;;;;153.43;105.57;;;;;;;10.13;100.00;101227.91;5040420;28;20114;-80
2023/07/21 00:46:42;;;;;;;153.77;105.90;;;;;;;10.13;100.00;101227.91;5057001;28;20039;-78
2023/07/21 00:49:08;;;;;;;154.27;107.07;;;;;;;10.14;100.00;101234.13;5073352;28;20036;-80
2023/07/21 00:51:34;;;;;;;153.70;106.82;;;;;;;10.02;100.00;101209.34;5072464;28;20113;-80
2023/07/21 00:54:00;;;;;;;153.90;106.07;;;;;;;10.03;100.00;101199.44;5073299;28;20459;-80
2023/07/21 00:56:26;;;;;;;152.07;106.05;;;;;;;10.17;100.00;101228.41;5057195;28;20214;-80
2023/07/21 00:58:52;;;;;;;157.77;108.53;;;;;;;10.12;100.00;101223.50;5056694;28;20050;-80
2023/07/21 01:01:17;;;;;;;162.13;110.45;;;;;;;10.06;100.00;101216.09;5052454;28;20099;-81
2023/07/21 01:03:43;;;;;;;158.25;108.90;;;;;;;10.07;100.00;101216.94;5052955;28;20029;-79
2023/07/21 01:06:09;;;;;;;160.23;110.15;;;;;;;10.06;100.00;101231.41;5052848;28;20029;-79
2023/07/21 01:08:35;;;;;;;161.20;108.78;;;;;;;9.96;100.00;101218.06;5053220;28;20029;-80
2023/07/21 01:11:01;;;;;;;160.60;110.57;;;;;;;9.90;100.00;101207.97;5044544;28;20036;-79
2023/07/21 01:13:27;;;;;;;161.80;109.50;;;;;;;10.00;100.00;101226.63;5056513;28;20029;-79
2023/07/21 01:15:55;;;;;;;163.20;109.80;;;;;;;9.97;100.00;101221.59;5055926;28;20048;-80
2023/07/21 01:18:22;;;;;;;160.23;109.82;;;;;;;10.07;100.00;101225.00;5039983;28;20045;-80
2023/07/21 01:20:48;;;;;;;169.30;112.65;;;;;;;10.12;100.00;101222.69;5052360;28;20036;-79
2023/07/21 01:23:48;;;;;;;162.00;110.53;;;;;;;10.32;100.00;101226.84;5036348;28;20059;-79
2023/07/21 01:26:14;;;;;;;164.23;112.07;;;;;;;10.45;100.00;101218.31;5019982;28;20476;-79
2023/07/21 01:28:40;;;;;;;166.20;111.55;;;;;;;10.62;100.00;101221.88;5052816;28;20475;-79
2023/07/21 01:31:06;;;;;;;164.15;111.38;;;;;;;10.74;100.00;101225.06;5058106;28;20074;-79
2023/07/21 01:33:32;;;;;;;169.73;113.47;;;;;;;10.88;100.00;101229.81;5073016;28;20040;-79
2023/07/21 01:35:59;;;;;;;181.20;115.93;;;;;;;10.97;100.00;101225.28;5056175;28;20060;-78
2023/07/21 01:38:25;;;;;;;183.05;118.68;;;;;;;10.72;100.00;101176.84;5072706;28;20082;-78
2023/07/21 01:40:51;;;;;;;189.95;121.07;;;;;;;11.07;100.00;101219.75;5038643;28;20443;-78
2023/07/21 01:43:17;;;;;;;209.15;131.00;;;;;;;11.07;100.00;101209.81;5055926;28;20497;-78
2023/07/21 01:45:43;;;;;;;213.77;131.73;;;;;;;11.10;100.00;101204.09;5055802;28;20020;-78
2023/07/21 01:48:09;;;;;;;210.98;131.25;;;;;;;11.04;100.00;101185.09;5055828;28;20040;-77
2023/07/21 01:50:39;;;;;;;219.80;135.05;;;;;;;10.98;100.00;101174.00;5071744;28;20394;-78
2023/07/21 01:53:08;;;;;;;222.00;135.20;;;;;;;10.97;100.00;101176.84;5056171;28;20029;-78
2023/07/21 01:55:42;;;;;;;221.20;135.43;;;;;;;11.09;100.00;101188.13;5055729;28;20037;-78
2023/07/21 01:58:08;;;;;;;221.45;136.07;;;;;;;11.04;100.00;101180.56;5019431;28;20036;-78
2023/07/21 02:00:36;;;;;;;223.70;137.25;;;;;;;11.04;100.00;101183.25;5052500;28;20135;-78
2023/07/21 02:03:04;;;;;;;197.18;124.57;;;;;;;10.93;100.00;101173.66;5035885;28;20101;-79
2023/07/21 02:05:30;;;;;;;166.88;110.88;;;;;;;10.98;100.00;101190.16;5035714;28;20021;-78
2023/07/21 02:07:56;;;;;;;213.48;131.65;;;;;;;10.97;100.00;101180.38;5058351;28;20044;-78
2023/07/21 02:10:22;;;;;;;160.25;108.90;;;;;;;10.94;100.00;101172.63;5056418;28;20086;-78
2023/07/21 02:12:48;;;;;;;160.48;108.43;;;;;;;10.90;100.00;101162.38;5072269;28;20116;-79
2023/07/21 02:15:14;;;;;;;161.57;108.63;;;;;;;10.95;100.00;101173.47;5055500;28;20123;-78
2023/07/21 02:17:40;;;;;;;156.60;106.53;;;;;;;10.76;100.00;101155.81;5072181;28;20115;-78
2023/07/21 02:20:09;;;;;;;152.75;105.10;;;;;;;10.81;100.00;101174.16;5054361;28;20075;-78
2023/07/21 02:22:39;;;;;;;141.73;100.47;;;;;;;10.71;100.00;101171.63;5071543;28;20053;-78
2023/07/21 02:25:06;;;;;;;151.07;105.15;;;;;;;10.59;100.00;101181.88;5055638;28;20029;-78
2023/07/21 02:27:33;;;;;;;148.63;104.03;;;;;;;10.43;100.00;101171.91;5039226;28;20041;-78
2023/07/21 02:29:59;;;;;;;145.50;102.07;;;;;;;10.24;100.00;101151.53;5051457;28;20069;-77
2023/07/21 02:32:25;;;;;;;147.95;101.90;;;;;;;10.27;100.00;101170.03;5035703;28;20037;-78
2023/07/21 02:34:51;;;;;;;147.32;102.53;;;;;;;10.23;100.00;101168.63;5052058;28;20036;-78
2023/07/21 02:37:16;;;;;;;143.18;100.97;;;;;;;10.09;100.00;101159.34;5051797;28;20506;-78
2023/07/21 02:39:42;;;;;;;145.50;103.13;;;;;;;10.10;100.00;101155.66;5050544;28;20352;-78
2023/07/21 02:42:24;;;;;;;150.27;104.03;;;;;;;10.12;100.00;101160.88;5055474;28;20048;-78
2023/07/21 02:44:50;;;;;;;147.88;103.75;;;;;;;10.13;100.00;101154.47;5071586;28;20387;-78
2023/07/21 02:47:19;;;;;;;149.50;104.47;;;;;;;10.19;100.00;101159.22;5055192;28;20037;-78
2023/07/21 02:49:44;;;;;;;146.45;102.70;;;;;;;10.04;100.00;101126.75;5071047;28;20071;-78
2023/07/21 02:52:11;;;;;;;146.85;103.63;;;;;;;10.15;100.00;101139.06;5040767;28;20033;-78
2023/07/21 02:54:36;;;;;;;144.43;102.65;;;;;;;10.20;100.00;101143.94;5075369;28;20059;-78
2023/07/21 02:57:02;;;;;;;150.48;105.03;;;;;;;10.16;100.00;101140.75;5075615;28;20068;-77
2023/07/21 02:59:28;;;;;;;157.70;108.35;;;;;;;10.28;100.00;101146.69;5058442;28;20445;-78
2023/07/21 03:01:54;;;;;;;155.73;107.50;;;;;;;10.29;100.00;101137.59;5076398;28;20086;-78
2023/07/21 03:04:25;;;;;;;149.00;103.50;;;;;;;10.36;100.00;101135.09;5075171;28;20120;-78
2023/07/21 03:06:51;;;;;;;155.52;106.07;;;;;;;10.42;100.00;101143.34;5058489;28;20033;-78
2023/07/21 03:09:17;;;;;;;182.95;118.18;;;;;;;10.47;100.00;101143.69;5058891;28;20041;-78
2023/07/21 03:11:43;;;;;;;151.07;105.28;;;;;;;10.40;100.00;101118.50;5055153;28;20043;-78
2023/07/21 03:14:10;;;;;;;149.07;104.70;;;;;;;10.54;100.00;101128.56;5038858;28;20070;-78
2023/07/21 03:16:36;;;;;;;149.15;101.30;;;;;;;10.47;100.00;101110.59;5057171;28;20182;-78
2023/07/21 03:19:02;;;;;;;143.07;101.53;;;;;;;10.56;100.00;101126.56;5042296;28;20127;-78
2023/07/21 03:21:27;;;;;;;143.45;100.60;;;;;;;10.55;100.00;101132.94;5025679;28;20537;-78
2023/07/21 03:23:53;;;;;;;146.25;101.80;;;;;;;10.43;100.00;101123.53;5058430;28;20486;-78
2023/07/21 03:26:20;;;;;;;148.48;103.15;;;;;;;10.33;100.00;101109.41;5058367;28;20024;-80
2023/07/21 03:28:46;;;;;;;149.25;103.95;;;;;;;10.31;100.00;101111.41;5075334;28;20028;-78
2023/07/21 03:31:12;;;;;;;153.48;105.57;;;;;;;10.33;100.00;101120.16;5058459;28;20032;-78
2023/07/21 03:33:37;;;;;;;155.95;107.63;;;;;;;10.34;100.00;101128.03;5058783;28;20037;-78
2023/07/21 03:36:04;;;;;;;156.27;107.28;;;;;;;10.40;100.00;101140.00;5058430;28;20395;-79
2023/07/21 03:38:35;;;;;;;160.35;109.68;;;;;;;10.42;100.00;101143.34;5024041;28;20037;-78
2023/07/21 03:41:03;;;;;;;185.27;120.95;;;;;;;10.47;100.00;101130.25;5054558;28;20025;-78
2023/07/21 03:43:30;;;;;;;143.43;101.32;;;;;;;10.62;100.00;101132.28;5054504;28;20028;-78
2023/07/21 03:46:03;;;;;;;149.77;104.78;;;;;;;10.76;100.00;101129.75;5054688;28;20031;-78
2023/07/21 03:48:30;;;;;;;146.95;103.45;;;;;;;10.87;100.00;101135.81;5035808;28;20488;-78
2023/07/21 03:51:00;;;;;;;145.05;101.00;;;;;;;10.90;100.00;101124.72;5054336;28;20078;-78
2023/07/21 03:53:26;;;;;;;151.30;103.47;;;;;;;10.83;100.00;101113.81;5021823;28;20036;-78
2023/07/21 03:55:52;;;;;;;138.13;98.60;;;;;;;10.87;100.00;101109.75;5054657;28;20064;-78
2023/07/21 03:58:18;;;;;;;141.43;100.03;;;;;;;10.87;100.00;101106.22;5054194;28;20041;-78
2023/07/21 04:00:44;;;;;;;144.70;101.68;;;;;;;10.84;100.00;101103.88;5073229;28;20027;-78
2023/07/21 04:03:09;;;;;;;144.02;100.82;;;;;;;10.90;100.00;101117.50;5056660;28;20028;-78
2023/07/21 04:05:35;;;;;;;152.88;104.95;;;;;;;10.88;100.00;101111.44;5073836;28;20119;-79
2023/07/21 04:08:02;;;;;;;144.85;102.10;;;;;;;10.87;100.00;101117.81;5073960;28;20028;-78
2023/07/21 04:10:28;;;;;;;149.15;103.72;;;;;;;10.81;100.00;101118.50;5041107;28;20467;-78
2023/07/21 04:12:54;;;;;;;142.13;100.53;;;;;;;10.75;100.00;101116.50;5041184;28;20502;-78
2023/07/21 04:15:19;;;;;;;146.48;102.68;;;;;;;10.62;100.00;101105.41;5056731;28;20028;-78
2023/07/21 04:17:45;;;;;;;162.32;110.00;;;;;;;10.48;100.00;101101.53;5073424;28;20036;-78
2023/07/21 04:20:13;;;;;;;155.63;106.40;;;;;;;10.33;100.00;101098.66;5074205;28;20032;-78
2023/07/21 04:22:39;;;;;;;150.85;105.13;;;;;;;10.26;100.00;101111.84;5057565;28;20181;-77
2023/07/21 04:25:05;;;;;;;157.18;107.65;;;;;;;10.22;100.00;101093.56;5057284;28;20530;-78
2023/07/21 04:27:31;;;;;;;157.55;108.80;;;;;;;10.37;100.00;101107.22;5057051;28;20033;-78
2023/07/21 04:29:56;;;;;;;157.77;107.28;;;;;;;10.48;100.00;101105.06;5074597;28;20379;-79
2023/07/21 04:32:24;;;;;;;152.23;105.80;;;;;;;10.54;100.00;101103.53;5074645;28;20463;-78
2023/07/21 04:34:50;;;;;;;196.95;124.60;;;;;;;10.66;100.00;101106.72;5073437;28;20422;-78
2023/07/21 04:37:15;;;;;;;204.02;129.55;;;;;;;10.74;100.00;101115.66;5073100;28;20028;-79
2023/07/21 04:39:41;;;;;;;149.65;104.80;;;;;;;10.82;100.00;101122.03;5073691;28;20478;-78
2023/07/21 04:42:08;;;;;;;144.32;101.93;;;;;;;10.81;100.00;101107.75;5073854;28;20060;-78
2023/07/21 04:44:33;;;;;;;138.85;99.20;;;;;;;10.88;100.00;101114.13;5073227;28;20454;-78
2023/07/21 04:46:59;;;;;;;144.10;100.65;;;;;;;10.93;100.00;101114.47;5074182;28;20031;-80
2023/07/21 04:49:24;;;;;;;139.10;99.30;;;;;;;11.02;100.00;101111.78;5040428;28;20032;-79
2023/07/21 04:51:50;;;;;;;130.00;94.60;;;;;;;11.06;100.00;101116.66;5073284;28;20055;-78
2023/07/21 04:54:16;;;;;;;140.00;99.18;;;;;;;11.07;100.00;101117.47;5040067;28;20032;-78
2023/07/21 04:56:42;;;;;;;144.45;101.82;;;;;;;10.96;100.00;101097.97;5040329;28;20126;-78
2023/07/21 04:59:08;;;;;;;153.85;104.43;;;;;;;11.05;100.00;101109.56;5072831;28;20113;-78
2023/07/21 05:01:34;;;;;;;141.13;99.72;;;;;;;11.09;100.00;101108.22;5073085;28;20064;-78
2023/07/21 05:03:59;;;;;;;144.48;102.07;;;;;;;10.94;100.00;101077.63;5073999;28;20032;-79
2023/07/21 05:06:25;;;;;;;139.93;99.55;;;;;;;11.03;100.00;101100.81;5057016;28;20062;-78
2023/07/21 05:08:51;;;;;;;145.23;102.20;;;;;;;10.94;100.00;101113.44;5051898;28;20044;-78
2023/07/21 05:11:17;;;;;;;151.65;105.07;;;;;;;10.73;100.00;101091.59;5036321;28;20045;-78
2023/07/21 05:13:45;;;;;;;151.48;104.45;;;;;;;10.84;100.00;101110.09;5053789;28;20025;-79
2023/07/21 05:16:10;;;;;;;152.30;105.78;;;;;;;10.93;100.00;101098.31;5052545;28;20037;-78
2023/07/21 05:18:37;;;;;;;155.77;107.07;;;;;;;11.03;100.00;101092.75;5048730;28;20037;-78
2023/07/21 05:21:03;;;;;;;154.73;106.47;;;;;;;11.10;100.00;101091.06;5072501;28;20028;-78
2023/07/21 05:23:29;;;;;;;157.73;107.90;;;;;;;11.26;100.00;101100.13;5056214;28;20386;-78
2023/07/21 05:26:01;;;;;;;159.77;107.32;;;;;;;11.31;100.00;101101.28;5073925;28;20028;-78
2023/07/21 05:28:28;;;;;;;161.00;109.70;;;;;;;11.33;100.00;101098.41;5072474;28;20033;-78
2023/07/21 05:30:53;;;;;;;157.32;107.95;;;;;;;11.36;100.00;101098.06;5072939;28;20471;-78
2023/07/21 05:33:19;;;;;;;156.40;105.72;;;;;;;11.45;100.00;101108.63;5039674;28;20033;-78
2023/07/21 05:35:45;;;;;;;158.50;106.93;;;;;;;11.38;100.00;101091.50;5073538;28;20028;-79
2023/07/21 05:38:10;;;;;;;151.57;104.63;;;;;;;11.51;100.00;101103.56;5072212;28;20056;-79
2023/07/21 05:40:36;;;;;;;150.48;104.18;;;;;;;11.49;100.00;101094.84;5072344;28;20028;-79
2023/07/21 05:43:02;;;;;;;154.50;105.38;;;;;;;11.52;100.00;101083.72;5039556;28;20470;-79
2023/07/21 05:45:28;;;;;;;156.35;106.10;;;;;;;11.66;100.00;101094.59;5071818;28;20499;-79
2023/07/21 05:47:55;;;;;;;157.18;106.63;;;;;;;11.67;100.00;101087.38;5072831;28;20550;-79
2023/07/21 05:50:21;;;;;;;160.38;108.07;;;;;;;11.71;100.00;101083.28;5072198;28;20034;-79
2023/07/21 05:52:53;;;;;;;154.50;105.55;;;;;;;11.98;100.00;101108.13;5072793;28;20050;-79
2023/07/21 05:55:19;;;;;;;167.05;110.22;;;;;;;12.08;100.00;101108.75;5039835;28;20107;-79
2023/07/21 05:57:45;;;;;;;193.13;122.57;;;;;;;12.11;100.00;101105.69;5055734;28;20036;-78
2023/07/21 06:00:15;;;;;;;209.75;129.38;;;;;;;12.17;100.00;101102.31;5072271;28;20036;-80
2023/07/21 06:02:41;;;;;;;179.27;115.15;;;;;;;12.15;100.00;101080.06;5056367;28;20491;-78
2023/07/21 06:05:08;;;;;;;227.50;136.73;;;;;;;12.29;100.00;101092.75;5055765;28;20101;-78
2023/07/21 06:07:34;;;;;;;223.35;134.85;;;;;;;12.35;100.00;101093.06;5055244;28;20131;-78
2023/07/21 06:09:59;;;;;;;220.48;132.32;;;;;;;12.50;100.00;101102.06;5055819;28;20082;-78
2023/07/21 06:12:25;;;;;;;221.48;133.98;;;;;;;12.57;100.00;101102.16;5051750;28;20064;-78
2023/07/21 06:14:50;;;;;;;221.32;133.57;;;;;;;12.51;100.00;101090.25;5052435;28;20120;-78
2023/07/21 06:17:19;;;;;;;145.32;100.10;;;;;;;12.72;100.00;101100.38;5051753;28;20040;-78
2023/07/21 06:19:47;;;;;;;216.52;130.65;;;;;;;12.73;100.00;101089.41;5072265;28;20082;-78
2023/07/21 06:22:13;;;;;;;221.18;133.35;;;;;;;12.74;100.00;101076.75;5039102;28;20550;-78
2023/07/21 06:24:40;;;;;;;151.38;102.75;;;;;;;12.95;100.00;101103.88;5072136;28;20032;-78
2023/07/21 06:27:06;;;;;;;212.98;129.35;;;;;;;12.95;100.00;101093.06;5073289;28;20451;-79
2023/07/21 06:29:33;;;;;;;215.57;129.90;;;;;;;13.10;100.00;101097.69;5076264;28;20071;-79
2023/07/21 06:31:59;;;;;;;218.50;131.57;;;;;;;13.01;100.00;101056.41;5076127;28;20451;-78
2023/07/21 06:34:25;;;;;;;218.77;131.40;;;;;;;13.17;100.00;101083.22;5075700;28;20089;-78
2023/07/21 06:36:51;;;;;;;222.20;132.35;;;;;;;13.13;100.00;101073.84;5042688;28;20545;-79
2023/07/21 06:39:17;;;;;;;223.07;131.88;;;;;;;13.25;100.00;101089.56;5076767;28;20554;-78
2023/07/21 06:41:44;;;;;;;184.10;116.38;;;;;;;13.27;100.00;101087.56;5059339;28;20437;-79
2023/07/21 06:44:10;;;;;;;219.45;131.73;;;;;;;13.35;100.00;101091.00;5076100;28;20036;-78
2023/07/21 06:46:36;;;;;;;219.70;131.13;;;;;;;13.37;100.00;101077.34;5059092;28;20033;-78
2023/07/21 06:49:02;;;;;;;221.80;132.30;;;;;;;13.57;100.00;101096.50;5076382;28;20029;-78
2023/07/21 06:51:27;;;;;;;214.57;128.90;;;;;;;13.56;100.00;101075.91;5075693;28;20078;-78
2023/07/21 06:53:53;;;;;;;211.75;128.18;;;;;;;13.61;100.00;101070.78;5059214;28;20441;-78
2023/07/21 06:56:21;;;;;;;218.82;130.00;;;;;;;13.77;100.00;101083.25;5075234;28;20467;-78
2023/07/21 06:58:47;;;;;;;215.27;129.65;;;;;;;13.79;100.00;101076.63;5058983;28;20047;-79
2023/07/21 07:01:12;;;;;;;216.48;129.93;;;;;;;13.85;100.00;101089.38;5075675;28;20036;-79
2023/07/21 07:03:38;;;;;;;219.82;130.63;;;;;;;13.93;100.00;101096.56;5058998;28;20509;-79
2023/07/21 07:06:03;;;;;;;213.15;128.18;;;;;;;13.74;100.00;101081.78;5058309;28;20116;-79
2023/07/21 07:08:29;;;;;;;224.55;131.68;;;;;;;13.77;100.00;101094.06;5075148;28;20040;-78
2023/07/21 07:10:55;;;;;;;215.48;128.77;;;;;;;13.78;100.00;101088.47;5076594;28;20075;-78
2023/07/21 07:13:20;;;;;;;217.52;130.02;;;;;;;13.85;100.00;101091.25;5075266;28;20033;-80
2023/07/21 07:15:49;;;;;;;215.05;128.95;;;;;;;13.97;100.00;101089.75;5074637;28;20269;-77
2023/07/21 07:18:15;;;;;;;211.07;127.35;;;;;;;14.10;100.00;101091.75;5042186;28;20432;-79
2023/07/21 07:20:48;;;;;;;211.20;127.68;;;;;;;14.19;100.00;101085.19;5075197;28;20031;-78
2023/07/21 07:23:15;;;;;;;209.38;125.95;;;;;;;14.40;100.00;101097.91;5042341;28;20071;-80
2023/07/21 07:25:48;;;;;;;206.35;124.85;;;;;;;14.59;100.00;101090.22;5057942;28;20391;-79
2023/07/21 07:28:15;;;;;;;217.50;128.70;;;;;;;14.54;100.00;101085.38;5059030;28;20036;-79
2023/07/21 07:30:41;;;;;;;199.23;122.13;;;;;;;14.44;100.00;101076.72;5076016;28;20464;-80
2023/07/21 07:33:07;;;;;;;208.35;123.97;;;;;;;14.44;100.00;101080.25;5041791;28;20167;-79
2023/07/21 07:35:32;;;;;;;216.70;128.85;;;;;;;14.42;100.00;101076.91;5041133;28;20071;-78
2023/07/21 07:37:59;;;;;;;217.13;129.50;;;;;;;14.52;100.00;101096.38;5074980;28;20055;-78
2023/07/21 07:40:28;;;;;;;213.75;127.68;;;;;;;14.57;100.00;101097.69;5058923;28;20040;-79
2023/07/21 07:42:55;;;;;;;210.23;126.80;;;;;;;14.67;100.00;101107.16;5074821;28;20064;-79
2023/07/21 07:45:20;;;;;;;211.68;126.38;;;;;;;14.79;100.00;101083.13;5074173;28;20075;-78
2023/07/21 07:47:46;;;;;;;211.25;126.68;;;;;;;14.86;100.00;101078.56;5054098;28;20537;-79
2023/07/21 07:50:11;;;;;;;208.55;125.03;;;;;;;14.98;100.00;101083.44;5054569;28;20025;-78
2023/07/21 07:52:39;;;;;;;205.20;124.32;;;;;;;15.06;100.00;101083.31;5059669;28;20159;-79
2023/07/21 07:55:06;;;;;;;210.82;125.93;;;;;;;15.38;100.00;101089.97;5058240;28;20043;-78
2023/07/21 07:57:31;;;;;;;199.85;121.47;;;;;;;15.81;100.00;101089.81;5074340;28;20433;-78
2023/07/21 07:59:57;;;;;;;212.60;125.55;;;;;;;16.07;100.00;101078.22;5073317;28;20033;-80
2023/07/21 08:02:24;;;;;;;211.05;125.20;;;;;;;16.29;100.00;101099.78;5057739;28;20028;-82
2023/07/21 08:04:49;;;;;;;204.85;123.78;;;;;;;16.08;100.00;101093.44;5073793;28;20349;-79
2023/07/21 08:07:16;;;;;;;202.20;122.00;;;;;;;15.85;100.00;101082.09;5057593;28;20106;-80
2023/07/21 08:09:42;;;;;;;205.95;123.90;;;;;;;15.67;100.00;101090.75;5073824;28;20040;-78
2023/07/21 08:12:08;;;;;;;199.63;121.53;;;;;;;15.38;100.00;101066.44;5074826;28;20491;-78
2023/07/21 08:14:33;;;;;;;190.73;116.68;;;;;;;15.28;100.00;101087.63;5074160;28;20032;-79
2023/07/21 08:17:02;;;;;;;185.55;115.50;;;;;;;14.93;100.00;101079.47;5057520;28;20044;-79
2023/07/21 08:19:31;;;;;;;186.77;116.63;;;;;;;14.89;100.00;101091.72;5056777;28;20029;-78
2023/07/21 08:22:05;;;;;;;101.20;81.78;;;;;;;14.91;100.00;101096.94;5040519;28;20060;-78
2023/07/21 08:24:32;;;;;;;138.63;97.38;;;;;;;15.10;100.00;101088.13;5041596;28;20036;-78
2023/07/21 08:27:02;;;;;;;192.82;119.40;;;;;;;15.57;100.00;101096.53;5057122;28;20031;-78
2023/07/21 08:29:43;;;;;;;162.25;106.82;;;;;;;16.91;100.00;101083.16;5071372;28;20033;-78
2023/07/21 08:32:09;;;;;;;214.85;126.93;;;;;;;17.51;100.00;101072.16;5040728;28;20546;-78
2023/07/21 08:34:34;;;;;;;213.02;125.82;;;;;;;17.77;100.00;101073.13;5057131;28;20028;-78
2023/07/21 08:37:00;;;;;;;202.57;122.25;;;;;;;17.67;100.00;101068.13;5056848;28;20490;-78
2023/07/21 08:39:25;;;;;;;208.90;124.55;;;;;;;17.64;100.00;101068.56;5055969;28;20036;-78
2023/07/21 08:41:51;;;;;;;212.38;125.65;;;;;;;17.50;100.00;101061.53;5072287;28;20368;-78
2023/07/21 08:44:17;;;;;;;202.07;121.78;;;;;;;17.54;100.00;101079.91;5071478;28;20527;-79
2023/07/21 08:46:45;;;;;;;202.45;122.00;;;;;;;17.71;100.00;101082.16;5038075;28;20467;-79
2023/07/21 08:49:11;;;;;;;202.23;121.53;;;;;;;17.77;100.00;101071.22;5071869;28;20063;-79
2023/07/21 08:51:36;;;;;;;197.05;119.78;;;;;;;17.88;100.00;101056.16;5071257;28;20487;-79
2023/07/21 08:54:02;;;;;;;204.63;122.13;;;;;;;18.05;100.00;101074.69;5070891;28;20432;-79
2023/07/21 08:56:27;;;;;;;200.82;121.03;;;;;;;17.98;100.00;101072.84;5054529;28;20025;-79
2023/07/21 08:58:53;;;;;;;203.23;121.88;;;;;;;17.80;100.00;101064.56;5055895;28;20383;-78
2023/07/21 09:01:19;;;;;;;198.73;120.50;;;;;;;17.50;100.00;101058.81;5073377;28;20036;-79
2023/07/21 09:03:46;;;;;;;200.52;121.22;;;;;;;17.47;100.00;101076.38;5056479;28;20028;-79
2023/07/21 09:06:13;;;;;;;198.52;120.45;;;;;;;17.40;100.00;101064.69;5072989;28;20491;-78
2023/07/21 09:08:44;;;;;;;202.43;121.85;;;;;;;17.26;100.00;101054.91;5072784;28;20115;-79
2023/07/21 09:11:10;;;;;;;203.52;122.53;;;;;;;17.11;100.00;101083.13;5072996;28;20032;-79
2023/07/21 09:13:35;;;;;;;201.23;121.53;;;;;;;16.53;100.00;101066.59;5055190;28;20372;-79
2023/07/21 09:16:04;;;;;;;210.10;123.47;;;;;;;15.94;100.00;101042.91;5070659;28;20100;-79
2023/07/21 09:18:34;;;;;;;208.40;124.10;;;;;;;15.79;100.00;101068.31;5038067;28;20387;-78
2023/07/21 09:21:00;;;;;;;204.88;123.22;;;;;;;15.66;100.00;101054.66;5039778;28;20024;-77
2023/07/21 09:23:29;;;;;;;209.60;124.78;;;;;;;15.88;100.00;101066.28;5038113;28;20035;-79
2023/07/21 09:25:56;;;;;;;206.23;123.97;;;;;;;16.08;100.00;101074.47;5072354;28;20032;-78
2023/07/21 09:28:39;;;;;;;202.90;122.93;;;;;;;15.95;100.00;101072.53;5072924;28;20028;-77
2023/07/21 09:31:05;;;;;;;;;;;;;;;15.75;100.00;101077.06;5056110;28;20032;-77
2023/07/21 09:33:32;;;;;;;215.32;127.72;;;;;;;15.41;100.00;101073.31;5072115;28;19912;-77
2023/07/21 09:36:06;;;;;;;210.38;125.95;;;;;;;15.16;100.00;101065.69;5072514;28;20024;-78
2023/07/21 09:38:36;;;;;;;208.75;125.43;;;;;;;14.89;100.00;101066.50;5056060;28;20024;-76
2023/07/21 09:41:04;;;;;;;203.25;123.57;;;;;;;14.80;100.00;101073.94;5072530;28;20077;-77
2023/07/21 09:43:33;;;;;;;203.70;123.93;;;;;;;14.89;100.00;101063.81;5072260;28;20032;-79
2023/07/21 09:46:03;;;;;;;209.35;125.97;;;;;;;15.14;100.00;101069.63;5072085;28;20025;-79
2023/07/21 09:48:32;;;;;;;204.02;123.72;;;;;;;15.43;100.00;101078.53;5031043;28;20036;-78
2023/07/21 09:51:00;;;;;;;199.50;121.95;;;;;;;15.57;100.00;101072.16;5072090;28;20036;-78
2023/07/21 09:53:39;;;;;;;194.93;120.32;;;;;;;15.68;100.00;101058.00;5039305;28;20131;-78
2023/07/21 09:56:06;;;;;;;193.45;119.50;;;;;;;15.81;100.00;101058.09;5055897;28;20089;-78
2023/07/21 09:58:35;;;;;;;194.80;119.68;;;;;;;16.02;100.00;101072.56;5054994;28;20028;-79
2023/07/21 10:01:03;;;;;;;194.23;119.20;;;;;;;16.09;100.00;101073.44;5071653;28;20036;-78
2023/07/21 10:03:36;;;;;;;187.52;116.60;;;;;;;16.12;100.00;101056.75;5038661;28;20040;-79
2023/07/21 10:06:03;;;;;;;181.75;114.53;;;;;;;16.29;100.00;101064.50;5072549;28;20099;-78
2023/07/21 10:08:32;;;;;;;192.50;118.40;;;;;;;16.25;100.00;101073.06;5039078;28;20036;-81
2023/07/21 10:10:59;;;;;;;190.93;118.10;;;;;;;16.17;100.00;101065.09;5051413;28;20032;-78
2023/07/21 10:13:27;;;;;;;190.52;118.03;;;;;;;16.16;100.00;101070.72;5040094;28;20514;-78
2023/07/21 10:15:58;;;;;;;200.68;121.68;;;;;;;16.16;100.00;101071.56;5033452;28;20480;-79
2023/07/21 10:18:24;;;;;;;188.35;117.30;;;;;;;16.24;100.00;101060.50;5071589;28;20025;-78
2023/07/21 10:20:55;;;;;;;192.48;118.60;;;;;;;16.35;100.00;101079.94;5055034;28;20043;-78
2023/07/21 10:23:47;;;;;;;191.60;118.95;;;;;;;16.23;100.00;101064.28;5072262;28;20494;-78
2023/07/21 10:26:16;;;;;;;188.20;117.32;;;;;;;16.05;100.00;101077.59;5072310;28;20459;-78
2023/07/21 10:28:44;;;;;;;192.88;118.60;;;;;;;15.63;100.00;101067.78;5070303;28;20459;-78
2023/07/21 10:31:25;;;;;;;191.90;118.78;;;;;;;15.34;100.00;101081.41;5039011;28;20049;-78
2023/07/21 10:34:12;;;;;;;191.70;118.63;;;;;;;15.21;100.00;101075.91;5072629;28;20028;-79
2023/07/21 10:36:48;;;;;;;188.02;117.00;;;;;;;15.22;100.00;101077.59;5071748;28;20037;-78
2023/07/21 10:39:16;;;;;;;191.77;118.88;;;;;;;15.45;100.00;101074.56;5051445;28;20076;-78
2023/07/21 10:41:43;;;;;;;196.77;120.63;;;;;;;15.75;100.00;101064.34;5035833;28;20033;-78
2023/07/21 10:44:10;;;;;;;190.02;118.20;;;;;;;15.96;100.00;101067.97;5019149;28;20028;-78
2023/07/21 10:46:46;;;;;;;197.43;121.03;;;;;;;15.87;100.00;101074.59;5062393;28;20039;-78